ENGLEBRIGHT (USACE) (ENG)

Elevation: 551' · YUBA R basin · Operator: US Army Corps of Engineers

Provisional data, subject to change.
Query executed Monday at 13:23:16   clock

Select a sensor type for a plot of data.
Note: Reservoir Flows are daily averages.

Earlier

Date RES ELE    STORAGE    RES CHG    OUTFLOW    INFLOW    PPT INC   
 FEET   AF   AF   CFS   CFS   INCHES  
06/29/2014 522.45 66328 903 -- 1781 0.00
06/30/2014 525.01 68354 2026 -- 2435 0.00
07/01/2014 524.20 67708 -646 -- 1207 0.00
07/02/2014 523.60 67232 -476 -- 1355 0.00
07/03/2014 524.33 67811 579 -- 1863 0.00
07/04/2014 523.21 66925 -886 -- -447 0.00
07/05/2014 522.39 66281 -644 -- 1209 0.00
07/06/2014 521.46 65557 -724 -- 1164 0.00
07/07/2014 522.74 66555 998 -- 2011 0.00
07/08/2014 524.62 68043 1488 -- 2246 0.00
07/09/2014 523.67 67288 -755 -- 1099 0.00
07/10/2014 522.76 66571 -717 -- 1113 0.00
07/11/2014 521.01 65209 -1362 -- -687 0.00
07/12/2014 518.22 63082 -2127 -- 420 0.00
07/13/2014 517.52 62557 -525 -- 1223 --
07/14/2014 520.56 64862 2305 -- 2652 --
07/15/2014 522.60 66445 1583 -- -- --
07/16/2014 520.56 64862 -1583 -- 685 0.00
07/17/2014 519.01 63679 -1183 -- 880 0.00
07/18/2014 519.18 63808 129 -- 1558 0.00
07/19/2014 519.66 64173 365 -- 1702 0.00
07/20/2014 519.88 64341 168 -- 1590 0.00
07/21/2014 521.05 65240 899 -- 453 0.00
07/22/2014 520.25 64624 -616 -- 1219 0.00
07/23/2014 519.46 64024 -596 -- 1214 0.00
07/24/2014 520.88 65109 1085 -- 2047 0.00
07/25/2014 521.94 65930 821 -- 1909 0.00
07/26/2014 521.99 65969 39 -- 1497 0.00
07/27/2014 521.04 65232 -737 -- -372 0.00
07/28/2014 -- -- -- -- -- --

Later | Latest

Warning! This data is preliminary and subject to revision.

Download Data Now Download Data Now | Show ENG Map | Plot ENG Data | 1 Month ENG Data | Real-Time ENG Data | ENG Info